Time;durP1;ratioP1;P1;durP2;ratioP2;P2;SDS_P1;SDS_P2;PMS_P1;PMS_P2;Temp;Humidity;BMP_temperature;BMP_pressure;BME280_temperature;BME280_humidity;BME280_pressure;Samples;Min_cycle;Max_cycle;Signal;HPM_P1;HPM_P2
2021/07/31 00:01:56;;;;;;;4.63;4.18;;;;;;;;;;4901793;29;20087;-66
2021/07/31 00:04:23;;;;;;;6.15;3.80;;;;;;;;;;4918395;29;20145;-66
2021/07/31 00:06:50;;;;;;;5.57;3.85;;;;;;;;;;4918056;29;20587;-67
2021/07/31 00:09:16;;;;;;;4.65;3.50;;;;;;;;;;4917418;29;20127;-66
2021/07/31 00:11:43;;;;;;;4.30;3.72;;;;;;;;;;4918257;29;20464;-66
2021/07/31 00:14:09;;;;;;;4.70;3.50;;;;;;;;;;4918092;29;20503;-66
2021/07/31 00:16:36;;;;;;;5.72;3.60;;;;;;;;;;4918313;29;20067;-66
2021/07/31 00:19:02;;;;;;;4.03;3.63;;;;;;;;;;4918130;29;20111;-66
2021/07/31 00:21:29;;;;;;;4.07;3.60;;;;;;;;;;4918759;29;20138;-66
2021/07/31 00:23:56;;;;;;;4.57;3.70;;;;;;;;;;4917829;29;20080;-66
2021/07/31 00:26:22;;;;;;;3.28;2.50;;;;;;;;;;4918274;29;20088;-66
2021/07/31 00:28:49;;;;;;;6.18;2.72;;;;;;;;;;4917833;29;20079;-66
2021/07/31 00:31:15;;;;;;;2.72;2.33;;;;;;;;;;4916912;29;20079;-66
2021/07/31 00:33:42;;;;;;;3.45;1.88;;;;;;;;;;4901326;29;20104;-66
2021/07/31 00:36:09;;;;;;;3.20;1.90;;;;;;;;;;4917964;29;20135;-66
2021/07/31 00:38:35;;;;;;;5.53;2.65;;;;;;;;;;4916931;29;20099;-66
2021/07/31 00:41:02;;;;;;;2.85;1.80;;;;;;;;;;4917762;29;20484;-66
2021/07/31 00:43:28;;;;;;;4.65;2.42;;;;;;;;;;4916558;29;20063;-66
2021/07/31 00:45:55;;;;;;;4.88;2.13;;;;;;;;;;4917590;29;20044;-66
2021/07/31 00:48:22;;;;;;;5.53;2.45;;;;;;;;;;4900963;29;20048;-66
2021/07/31 00:50:48;;;;;;;4.82;2.28;;;;;;;;;;4917522;29;20139;-66
2021/07/31 00:53:15;;;;;;;2.95;2.00;;;;;;;;;;4916402;29;20088;-66
2021/07/31 00:55:41;;;;;;;3.65;1.83;;;;;;;;;;4916655;29;20075;-66
2021/07/31 00:58:08;;;;;;;2.95;2.10;;;;;;;;;;4900817;29;20087;-66
2021/07/31 01:00:35;;;;;;;4.75;1.73;;;;;;;;;;4916388;29;20087;-66
2021/07/31 01:03:02;;;;;;;4.80;2.13;;;;;;;;;;4917159;29;20055;-66
2021/07/31 01:05:28;;;;;;;3.38;1.80;;;;;;;;;;4916289;29;20052;-66
2021/07/31 01:07:55;;;;;;;3.45;1.50;;;;;;;;;;4917481;29;20080;-67
2021/07/31 01:10:22;;;;;;;5.22;2.08;;;;;;;;;;4900609;29;20084;-66
2021/07/31 01:12:49;;;;;;;2.80;2.03;;;;;;;;;;4917188;29;20124;-66
2021/07/31 01:15:15;;;;;;;6.90;2.20;;;;;;;;;;4900787;29;20048;-66
2021/07/31 01:17:42;;;;;;;4.22;1.90;;;;;;;;;;4917246;29;20091;-67
2021/07/31 01:20:09;;;;;;;2.75;2.10;;;;;;;;;;4915777;29;20095;-66
2021/07/31 01:22:36;;;;;;;4.65;2.13;;;;;;;;;;4900276;29;20103;-66
2021/07/31 01:25:03;;;;;;;3.60;1.75;;;;;;;;;;4915839;29;20083;-66
2021/07/31 01:27:29;;;;;;;3.10;2.00;;;;;;;;;;4900396;29;20091;-66
2021/07/31 01:29:57;;;;;;;4.82;2.03;;;;;;;;;;4915870;29;20428;-66
2021/07/31 01:32:23;;;;;;;3.97;1.90;;;;;;;;;;4915603;29;20091;-66
2021/07/31 01:34:50;;;;;;;3.80;2.00;;;;;;;;;;4916076;29;20095;-66
2021/07/31 01:37:16;;;;;;;3.95;1.85;;;;;;;;;;4916821;29;20079;-66
2021/07/31 01:39:43;;;;;;;3.15;1.70;;;;;;;;;;4916754;29;20126;-66
2021/07/31 01:42:09;;;;;;;3.67;1.95;;;;;;;;;;4916952;29;20095;-66
2021/07/31 01:44:36;;;;;;;2.85;1.88;;;;;;;;;;4915422;29;20067;-66
2021/07/31 01:47:03;;;;;;;3.53;1.80;;;;;;;;;;4915463;29;20088;-66
2021/07/31 01:49:30;;;;;;;5.13;1.98;;;;;;;;;;4916758;29;20062;-66
2021/07/31 01:51:56;;;;;;;3.38;1.48;;;;;;;;;;4899788;29;20052;-66
2021/07/31 01:54:23;;;;;;;4.28;1.58;;;;;;;;;;4916465;29;20083;-66
2021/07/31 01:56:50;;;;;;;7.47;1.48;;;;;;;;;;4916423;29;20076;-66
2021/07/31 01:59:17;;;;;;;1.75;1.15;;;;;;;;;;4916444;29;20079;-66
2021/07/31 02:01:43;;;;;;;3.58;1.45;;;;;;;;;;4916380;29;20079;-66
2021/07/31 02:04:10;;;;;;;2.28;1.30;;;;;;;;;;4916290;29;20567;-66
2021/07/31 02:06:37;;;;;;;3.08;1.85;;;;;;;;;;4916102;29;20123;-66
2021/07/31 02:09:03;;;;;;;3.30;1.45;;;;;;;;;;4916094;29;20084;-66
2021/07/31 02:11:30;;;;;;;4.85;1.60;;;;;;;;;;4915033;29;20080;-66
2021/07/31 02:13:56;;;;;;;3.50;1.45;;;;;;;;;;4915981;29;20079;-66
2021/07/31 02:16:26;;;;;;;2.60;1.10;;;;;;;;;;4916205;29;20460;-66
2021/07/31 02:18:53;;;;;;;4.57;1.38;;;;;;;;;;4916086;29;20056;-66
2021/07/31 02:21:20;;;;;;;2.95;1.52;;;;;;;;;;4899266;29;20479;-66
2021/07/31 02:23:47;;;;;;;3.53;1.50;;;;;;;;;;4899181;29;20080;-66
2021/07/31 02:26:13;;;;;;;8.18;1.42;;;;;;;;;;4915105;29;20475;-66
2021/07/31 02:28:40;;;;;;;2.45;0.90;;;;;;;;;;4914876;29;20189;-66
2021/07/31 02:31:07;;;;;;;4.47;1.13;;;;;;;;;;4916011;29;20098;-67
2021/07/31 02:33:33;;;;;;;3.45;1.08;;;;;;;;;;4914951;29;20515;-66
2021/07/31 02:36:03;;;;;;;2.40;0.98;;;;;;;;;;4916041;29;20088;-66
2021/07/31 02:38:31;;;;;;;3.17;1.45;;;;;;;;;;4914947;29;20080;-66
2021/07/31 02:40:58;;;;;;;2.58;1.00;;;;;;;;;;4914811;29;20052;-66
2021/07/31 02:43:24;;;;;;;5.07;1.17;;;;;;;;;;4915658;29;20492;-66
2021/07/31 02:45:51;;;;;;;2.75;1.10;;;;;;;;;;4915475;29;20091;-66
2021/07/31 02:48:17;;;;;;;5.55;1.30;;;;;;;;;;4915764;29;20044;-66
2021/07/31 02:50:44;;;;;;;3.28;1.30;;;;;;;;;;4915886;29;20087;-66
2021/07/31 02:53:10;;;;;;;4.72;1.20;;;;;;;;;;4914466;29;20470;-66
2021/07/31 02:55:37;;;;;;;1.58;1.35;;;;;;;;;;4915607;29;20096;-66
2021/07/31 02:58:03;;;;;;;4.65;1.42;;;;;;;;;;4915735;29;20079;-65
2021/07/31 03:00:30;;;;;;;4.63;1.20;;;;;;;;;;4915667;29;20056;-65
2021/07/31 03:02:57;;;;;;;4.40;1.20;;;;;;;;;;4915357;29;20134;-66
2021/07/31 03:05:23;;;;;;;3.75;1.02;;;;;;;;;;4915287;29;20052;-66
2021/07/31 03:07:50;;;;;;;2.83;1.77;;;;;;;;;;4915607;29;20139;-66
2021/07/31 03:10:16;;;;;;;2.38;1.55;;;;;;;;;;4915415;29;20080;-66
2021/07/31 03:12:43;;;;;;;4.57;1.20;;;;;;;;;;4915919;29;20504;-66
2021/07/31 03:15:10;;;;;;;3.58;1.35;;;;;;;;;;4915745;29;20092;-66
2021/07/31 03:17:37;;;;;;;6.13;1.88;;;;;;;;;;4916037;29;20076;-66
2021/07/31 03:20:04;;;;;;;3.33;1.50;;;;;;;;;;4916008;29;20052;-66
2021/07/31 03:22:31;;;;;;;2.38;1.15;;;;;;;;;;4915925;29;20079;-66
2021/07/31 03:24:57;;;;;;;4.15;1.35;;;;;;;;;;4918555;29;20080;-65
2021/07/31 03:27:24;;;;;;;2.75;1.25;;;;;;;;;;4907192;29;20515;-66
2021/07/31 03:29:50;;;;;;;3.75;1.52;;;;;;;;;;4915098;29;20574;-65
2021/07/31 03:32:17;;;;;;;5.07;1.65;;;;;;;;;;4915056;29;20516;-66
2021/07/31 03:34:44;;;;;;;3.22;1.48;;;;;;;;;;4914630;29;20143;-66
2021/07/31 03:37:11;;;;;;;3.63;1.25;;;;;;;;;;4915287;29;20575;-66
2021/07/31 03:39:38;;;;;;;3.60;1.40;;;;;;;;;;4915378;29;20485;-65
2021/07/31 03:42:04;;;;;;;2.28;1.35;;;;;;;;;;4914436;29;20084;-65
2021/07/31 03:44:31;;;;;;;2.00;1.10;;;;;;;;;;4913940;29;20144;-66
2021/07/31 03:46:57;;;;;;;2.92;1.40;;;;;;;;;;4913961;29;20083;-66
2021/07/31 03:49:24;;;;;;;5.82;1.75;;;;;;;;;;4915254;29;20048;-65
2021/07/31 03:51:54;;;;;;;2.50;1.23;;;;;;;;;;4915123;29;20091;-65
2021/07/31 03:54:21;;;;;;;4.32;1.50;;;;;;;;;;4915436;29;20083;-66
2021/07/31 03:56:47;;;;;;;4.93;1.30;;;;;;;;;;4915432;29;20464;-66
2021/07/31 03:59:14;;;;;;;2.97;1.25;;;;;;;;;;4917788;29;20091;-66
2021/07/31 04:01:40;;;;;;;4.47;1.30;;;;;;;;;;4918774;29;20099;-66
2021/07/31 04:04:07;;;;;;;2.50;1.50;;;;;;;;;;4918560;29;20075;-66
2021/07/31 04:06:34;;;;;;;6.30;1.60;;;;;;;;;;4917650;29;20084;-66
2021/07/31 04:09:00;;;;;;;4.43;1.80;;;;;;;;;;4918690;29;20511;-66
2021/07/31 04:11:27;;;;;;;2.90;1.30;;;;;;;;;;4918923;29;20455;-65
2021/07/31 04:13:54;;;;;;;2.53;1.27;;;;;;;;;;4918172;29;20092;-66
2021/07/31 04:16:21;;;;;;;5.65;1.60;;;;;;;;;;4918375;29;20128;-66
2021/07/31 04:18:48;;;;;;;1.30;1.08;;;;;;;;;;4918122;29;20064;-66
2021/07/31 04:21:15;;;;;;;5.20;1.65;;;;;;;;;;4918326;29;20052;-66
2021/07/31 04:23:41;;;;;;;3.35;1.50;;;;;;;;;;4901235;29;20091;-66
2021/07/31 04:26:15;;;;;;;4.70;1.50;;;;;;;;;;4915405;29;20127;-66
2021/07/31 04:28:42;;;;;;;2.17;1.50;;;;;;;;;;4916928;29;20087;-66
2021/07/31 04:31:10;;;;;;;5.88;1.80;;;;;;;;;;4911259;29;20194;-65
2021/07/31 04:33:42;;;;;;;4.90;1.30;;;;;;;;;;4904772;29;20499;-66
2021/07/31 04:36:09;;;;;;;3.28;1.20;;;;;;;;;;4898971;29;20090;-66
2021/07/31 04:38:35;;;;;;;6.05;1.80;;;;;;;;;;4884989;29;20075;-66
2021/07/31 04:41:03;;;;;;;7.38;2.05;;;;;;;;;;4897773;29;20087;-66
2021/07/31 04:43:31;;;;;;;5.93;2.25;;;;;;;;;;4887386;29;20083;-66
2021/07/31 04:45:58;;;;;;;3.45;2.10;;;;;;;;;;4916271;29;20052;-65
2021/07/31 04:48:25;;;;;;;5.25;1.60;;;;;;;;;;4897953;29;20084;-66
2021/07/31 04:51:05;;;;;;;3.40;1.67;;;;;;;;;;4897664;29;20063;-66
2021/07/31 04:53:32;;;;;;;2.40;1.30;;;;;;;;;;4883011;29;20132;-66
2021/07/31 04:55:58;;;;;;;4.47;1.30;;;;;;;;;;4897705;29;20080;-65
2021/07/31 04:58:25;;;;;;;3.85;2.15;;;;;;;;;;4898889;29;20511;-66
2021/07/31 05:00:52;;;;;;;3.75;1.45;;;;;;;;;;4897476;29;20083;-66
2021/07/31 05:03:18;;;;;;;2.60;1.50;;;;;;;;;;4906178;29;20079;-65
2021/07/31 05:05:45;;;;;;;6.93;1.80;;;;;;;;;;4917375;29;20087;-66
2021/07/31 05:08:13;;;;;;;4.63;1.70;;;;;;;;;;4917337;29;20107;-66
2021/07/31 05:10:45;;;;;;;5.88;1.75;;;;;;;;;;4916235;29;20531;-66
2021/07/31 05:13:11;;;;;;;4.85;2.03;;;;;;;;;;4916103;29;20056;-66
2021/07/31 05:15:39;;;;;;;3.40;1.95;;;;;;;;;;4915667;29;20082;-68
2021/07/31 05:18:06;;;;;;;4.75;2.72;;;;;;;;;;4915321;29;20075;-66
2021/07/31 05:20:33;;;;;;;6.55;2.55;;;;;;;;;;4917032;29;20490;-66
2021/07/31 05:23:00;;;;;;;5.10;2.30;;;;;;;;;;4915573;29;20056;-66
2021/07/31 05:25:27;;;;;;;7.03;2.30;;;;;;;;;;4915740;29;20055;-65
2021/07/31 05:27:54;;;;;;;6.05;2.13;;;;;;;;;;4916839;29;20079;-66
2021/07/31 05:30:21;;;;;;;7.60;2.75;;;;;;;;;;4900043;29;20094;-66
2021/07/31 05:32:48;;;;;;;4.75;2.60;;;;;;;;;;4916805;29;20102;-66
2021/07/31 05:35:14;;;;;;;3.67;1.77;;;;;;;;;;4915864;29;20084;-66
2021/07/31 05:37:41;;;;;;;2.53;1.67;;;;;;;;;;4915947;29;20045;-66
2021/07/31 05:40:08;;;;;;;12.05;2.17;;;;;;;;;;4915846;29;20060;-66
2021/07/31 05:42:35;;;;;;;6.15;1.95;;;;;;;;;;4915592;29;20079;-66
2021/07/31 05:45:05;;;;;;;3.80;1.88;;;;;;;;;;4915617;29;20534;-65
2021/07/31 05:47:32;;;;;;;3.05;1.50;;;;;;;;;;4916627;29;20481;-66
2021/07/31 05:50:02;;;;;;;5.47;1.67;;;;;;;;;;4920703;29;20547;-66
2021/07/31 05:52:28;;;;;;;4.78;1.77;;;;;;;;;;4916570;29;20523;-66
2021/07/31 05:54:56;;;;;;;5.88;1.73;;;;;;;;;;4916544;29;20090;-66
2021/07/31 05:57:23;;;;;;;5.20;1.65;;;;;;;;;;4915347;29;20059;-66
2021/07/31 05:59:50;;;;;;;5.03;1.65;;;;;;;;;;4915186;29;20083;-66
2021/07/31 06:02:16;;;;;;;4.40;1.38;;;;;;;;;;4916393;29;20482;-67
2021/07/31 06:04:43;;;;;;;4.15;1.73;;;;;;;;;;4903059;29;20052;-68
2021/07/31 06:07:11;;;;;;;6.10;1.88;;;;;;;;;;4896307;29;20139;-66
2021/07/31 06:09:38;;;;;;;2.47;1.65;;;;;;;;;;4880985;29;20056;-67
2021/07/31 06:12:06;;;;;;;6.55;2.15;;;;;;;;;;4880937;29;20090;-68
2021/07/31 06:14:34;;;;;;;6.70;2.03;;;;;;;;;;4866955;29;20078;-67
2021/07/31 06:17:01;;;;;;;3.45;1.60;;;;;;;;;;4884042;29;20095;-66
2021/07/31 06:19:28;;;;;;;6.03;1.70;;;;;;;;;;4916138;29;20056;-67
2021/07/31 06:21:54;;;;;;;2.92;1.52;;;;;;;;;;4913733;29;20542;-67
2021/07/31 06:24:21;;;;;;;5.03;1.30;;;;;;;;;;4902286;29;20088;-70
2021/07/31 06:26:47;;;;;;;2.28;1.30;;;;;;;;;;4896832;29;20076;-68
2021/07/31 06:29:14;;;;;;;7.47;2.92;;;;;;;;;;4898197;29;20048;-67
2021/07/31 06:31:41;;;;;;;6.28;1.83;;;;;;;;;;4912548;29;20135;-67
2021/07/31 06:34:08;;;;;;;11.13;2.33;;;;;;;;;;4914578;29;20060;-68
2021/07/31 06:36:35;;;;;;;5.80;1.83;;;;;;;;;;4904312;29;20079;-67
2021/07/31 06:39:02;;;;;;;5.78;1.35;;;;;;;;;;4896741;29;20136;-68
2021/07/31 06:41:29;;;;;;;7.57;1.77;;;;;;;;;;4899582;29;20131;-67
2021/07/31 06:43:56;;;;;;;2.25;1.10;;;;;;;;;;4915570;29;20083;-68
2021/07/31 06:46:24;;;;;;;4.15;1.20;;;;;;;;;;4915413;29;20083;-68
2021/07/31 06:48:52;;;;;;;10.07;1.30;;;;;;;;;;4914564;29;20495;-66
2021/07/31 06:51:20;;;;;;;7.38;1.70;;;;;;;;;;4899030;29;20056;-66
2021/07/31 06:53:47;;;;;;;4.30;1.67;;;;;;;;;;4898659;29;20071;-68
2021/07/31 06:56:13;;;;;;;3.88;1.40;;;;;;;;;;4915523;29;20087;-68
2021/07/31 06:58:40;;;;;;;3.35;1.20;;;;;;;;;;4914339;29;20088;-67
2021/07/31 07:01:10;;;;;;;3.40;1.33;;;;;;;;;;4915325;29;20087;-67
2021/07/31 07:03:37;;;;;;;3.05;1.48;;;;;;;;;;4915436;29;20056;-66
2021/07/31 07:06:05;;;;;;;2.83;1.77;;;;;;;;;;4915213;29;20104;-67
2021/07/31 07:08:32;;;;;;;2.92;1.17;;;;;;;;;;4915441;29;20091;-67
2021/07/31 07:11:03;;;;;;;2.70;1.48;;;;;;;;;;4914180;29;20063;-67
2021/07/31 07:13:37;;;;;;;3.25;1.30;;;;;;;;;;4914151;29;20048;-67
2021/07/31 07:16:05;;;;;;;4.90;1.20;;;;;;;;;;4913962;29;20650;-68
2021/07/31 07:18:31;;;;;;;3.60;1.15;;;;;;;;;;4914281;29;20054;-67
2021/07/31 07:21:03;;;;;;;4.40;1.15;;;;;;;;;;4914035;29;20589;-67
2021/07/31 07:23:29;;;;;;;5.97;1.20;;;;;;;;;;4898517;29;20087;-66
2021/07/31 07:25:56;;;;;;;5.47;1.42;;;;;;;;;;4914126;29;20471;-67
2021/07/31 07:28:23;;;;;;;4.32;1.10;;;;;;;;;;4914048;29;20091;-67
2021/07/31 07:30:50;;;;;;;3.22;1.30;;;;;;;;;;4914868;29;20083;-66
2021/07/31 07:33:16;;;;;;;4.90;1.38;;;;;;;;;;4916535;29;20056;-67
2021/07/31 07:35:43;;;;;;;3.05;1.63;;;;;;;;;;4919578;29;20079;-67
2021/07/31 07:38:09;;;;;;;4.38;1.15;;;;;;;;;;4917865;29;20075;-68
2021/07/31 07:40:36;;;;;;;3.33;1.20;;;;;;;;;;4918508;29;20087;-70
2021/07/31 07:43:02;;;;;;;3.13;1.15;;;;;;;;;;4918625;29;20056;-69
2021/07/31 07:45:29;;;;;;;3.30;1.02;;;;;;;;;;4916896;29;20538;-69
2021/07/31 07:47:56;;;;;;;3.75;1.33;;;;;;;;;;4916561;29;20083;-69
2021/07/31 07:50:23;;;;;;;6.30;1.60;;;;;;;;;;4899807;29;20052;-69
2021/07/31 07:52:50;;;;;;;3.97;1.20;;;;;;;;;;4916761;29;20098;-69
2021/07/31 07:55:16;;;;;;;3.83;1.00;;;;;;;;;;4917044;29;20092;-70
2021/07/31 07:57:43;;;;;;;3.28;1.02;;;;;;;;;;4916274;29;20076;-69
2021/07/31 08:00:10;;;;;;;4.13;1.52;;;;;;;;;;4916563;29;20079;-70
2021/07/31 08:02:36;;;;;;;6.30;1.27;;;;;;;;;;4915592;29;20777;-69
2021/07/31 08:05:04;;;;;;;5.70;1.33;;;;;;;;;;4915976;29;20582;-70
2021/07/31 08:07:30;;;;;;;4.15;1.40;;;;;;;;;;4915541;29;20095;-69
2021/07/31 08:09:57;;;;;;;3.75;1.30;;;;;;;;;;4916645;29;20052;-70
2021/07/31 08:12:24;;;;;;;3.28;1.13;;;;;;;;;;4916102;29;20052;-70
2021/07/31 08:14:51;;;;;;;5.32;1.40;;;;;;;;;;4916485;29;20130;-69
2021/07/31 08:17:17;;;;;;;5.93;1.48;;;;;;;;;;4916636;29;20083;-70
2021/07/31 08:19:44;;;;;;;3.75;1.48;;;;;;;;;;4916412;29;20080;-70
2021/07/31 08:22:10;;;;;;;4.05;1.98;;;;;;;;;;4916400;29;20103;-70
2021/07/31 08:24:37;;;;;;;2.97;1.25;;;;;;;;;;4915728;29;20087;-69
2021/07/31 08:27:03;;;;;;;6.28;1.63;;;;;;;;;;4916371;29;20091;-69
2021/07/31 08:29:30;;;;;;;4.25;1.20;;;;;;;;;;4916252;29;20091;-70
2021/07/31 08:31:56;;;;;;;3.83;1.38;;;;;;;;;;4916249;29;20076;-69
2021/07/31 08:34:23;;;;;;;5.15;1.40;;;;;;;;;;4916063;29;20056;-69
2021/07/31 08:36:50;;;;;;;4.70;1.67;;;;;;;;;;4905158;29;20099;-65
2021/07/31 08:39:16;;;;;;;6.18;1.77;;;;;;;;;;4907509;29;20132;-69
2021/07/31 08:41:46;;;;;;;8.10;1.30;;;;;;;;;;4908422;29;20131;-73
2021/07/31 08:44:12;;;;;;;2.38;1.05;;;;;;;;;;4909322;29;20049;-73
2021/07/31 08:46:39;;;;;;;6.60;1.40;;;;;;;;;;4909196;29;20087;-72
2021/07/31 08:49:05;;;;;;;3.75;1.30;;;;;;;;;;4904468;29;20048;-70
2021/07/31 08:51:32;;;;;;;3.10;1.30;;;;;;;;;;4909580;29;20056;-71
2021/07/31 08:54:02;;;;;;;4.78;1.67;;;;;;;;;;4907770;29;20538;-72
2021/07/31 08:56:29;;;;;;;3.13;1.50;;;;;;;;;;4905086;23;20047;-68
2021/07/31 08:58:59;;;;;;;6.32;1.60;;;;;;;;;;4930056;29;20078;-69
2021/07/31 09:01:25;;;;;;;4.75;1.20;;;;;;;;;;4934384;29;20107;-69
2021/07/31 09:03:54;;;;;;;2.20;1.20;;;;;;;;;;4934969;29;20059;-70
2021/07/31 09:06:28;;;;;;;3.50;1.20;;;;;;;;;;4934927;29;20079;-67
2021/07/31 09:08:55;;;;;;;10.20;1.33;;;;;;;;;;4931409;29;20095;-68
2021/07/31 09:11:23;;;;;;;4.97;1.25;;;;;;;;;;4935039;29;20047;-70
2021/07/31 09:14:11;;;;;;;5.38;1.40;;;;;;;;;;4917932;29;20082;-68
2021/07/31 09:16:39;;;;;;;3.13;1.63;;;;;;;;;;4932265;29;20057;-68
2021/07/31 09:19:07;;;;;;;3.30;1.30;;;;;;;;;;4934239;29;20043;-67
2021/07/31 09:21:34;;;;;;;4.75;1.20;;;;;;;;;;4934773;29;20075;-64
2021/07/31 09:24:00;;;;;;;2.78;1.17;;;;;;;;;;4934689;29;20110;-66
2021/07/31 09:26:37;;;;;;;2.97;1.20;;;;;;;;;;4933083;29;20466;-68
2021/07/31 09:29:05;;;;;;;2.65;1.60;;;;;;;;;;4933570;29;20138;-67
2021/07/31 09:31:32;;;;;;;2.45;1.00;;;;;;;;;;4934427;29;20126;-67
2021/07/31 09:34:00;;;;;;;3.90;1.35;;;;;;;;;;4934596;29;20059;-67
2021/07/31 09:36:37;;;;;;;1.83;0.93;;;;;;;;;;4934300;29;20102;-66
2021/07/31 09:39:09;;;;;;;3.75;1.10;;;;;;;;;;4931786;29;20056;-66
2021/07/31 09:41:37;;;;;;;5.43;1.23;;;;;;;;;;4930079;29;20495;-66
2021/07/31 09:44:12;;;;;;;2.83;1.00;;;;;;;;;;4934192;29;20562;-66
2021/07/31 09:46:39;;;;;;;1.83;1.10;;;;;;;;;;4931225;29;20103;-66
2021/07/31 09:49:08;;;;;;;5.43;1.30;;;;;;;;;;4934432;29;20051;-67
2021/07/31 09:51:47;;;;;;;4.30;1.83;;;;;;;;;;4934286;29;20566;-66
2021/07/31 09:54:16;;;;;;;5.30;1.30;;;;;;;;;;4933509;29;20518;-67
2021/07/31 09:56:51;;;;;;;4.50;1.05;;;;;;;;;;4933385;29;20082;-67
2021/07/31 09:59:22;;;;;;;5.22;1.13;;;;;;;;;;4934102;29;20048;-67
2021/07/31 10:02:00;;;;;;;3.33;1.20;;;;;;;;;;4932949;29;20111;-67
2021/07/31 10:04:27;;;;;;;4.63;1.15;;;;;;;;;;4934236;29;20059;-67
2021/07/31 10:06:53;;;;;;;4.70;1.23;;;;;;;;;;4917064;29;20371;-67
2021/07/31 10:09:20;;;;;;;4.65;1.20;;;;;;;;;;4934294;29;20040;-67
2021/07/31 10:11:46;;;;;;;2.47;1.10;;;;;;;;;;4944683;29;20467;-67
2021/07/31 10:14:13;;;;;;;2.53;0.90;;;;;;;;;;4932868;29;20044;-67
2021/07/31 10:16:47;;;;;;;2.47;1.00;;;;;;;;;;4933982;29;20051;-66
2021/07/31 10:19:14;;;;;;;3.15;0.90;;;;;;;;;;4927760;29;20063;-67
2021/07/31 10:22:00;;;;;;;3.67;1.13;;;;;;;;;;4933845;29;20423;-68
2021/07/31 10:24:28;;;;;;;5.88;1.25;;;;;;;;;;4930302;29;20102;-68
2021/07/31 10:27:16;;;;;;;4.35;1.00;;;;;;;;;;4933642;29;20056;-67
2021/07/31 10:29:44;;;;;;;4.30;1.00;;;;;;;;;;4933700;29;20086;-66
2021/07/31 10:32:19;;;;;;;2.83;0.98;;;;;;;;;;4933638;29;20471;-66
2021/07/31 10:34:46;;;;;;;1.98;0.95;;;;;;;;;;4932358;29;20052;-66
2021/07/31 10:37:28;;;;;;;3.60;1.58;;;;;;;;;;4934569;29;20122;-67
2021/07/31 10:39:55;;;;;;;3.50;1.30;;;;;;;;;;4931762;29;20478;-66
2021/07/31 10:42:22;;;;;;;6.05;1.10;;;;;;;;;;4933659;29;20534;-66
2021/07/31 10:45:10;;;;;;;2.35;1.02;;;;;;;;;;4933629;29;20072;-66
2021/07/31 10:47:37;;;;;;;3.22;1.17;;;;;;;;;;4933449;29;20043;-66
2021/07/31 10:50:26;;;;;;;3.58;1.23;;;;;;;;;;4932901;29;20060;-66
2021/07/31 10:53:00;;;;;;;4.82;1.25;;;;;;;;;;4933182;29;20055;-66
2021/07/31 10:55:36;;;;;;;2.53;1.27;;;;;;;;;;4933627;29;20083;-66
2021/07/31 10:58:11;;;;;;;3.22;1.10;;;;;;;;;;4931402;29;20086;-66
2021/07/31 11:00:46;;;;;;;3.70;1.50;;;;;;;;;;4933074;29;20151;-70
2021/07/31 11:03:27;;;;;;;4.18;1.58;;;;;;;;;;4933575;29;20478;-67
2021/07/31 11:06:03;;;;;;;4.03;1.50;;;;;;;;;;4933325;29;20051;-65
2021/07/31 11:08:34;;;;;;;2.25;1.35;;;;;;;;;;4936945;29;20542;-66
2021/07/31 11:11:25;;;;;;;3.90;1.42;;;;;;;;;;4936093;29;20407;-69
2021/07/31 11:13:53;;;;;;;4.97;1.30;;;;;;;;;;4935329;29;20103;-67
2021/07/31 11:16:21;;;;;;;4.25;1.30;;;;;;;;;;4935737;29;20391;-66
2021/07/31 11:18:57;;;;;;;4.18;1.30;;;;;;;;;;4937096;29;20134;-66
2021/07/31 11:21:29;;;;;;;2.15;1.13;;;;;;;;;;4934141;29;20114;-66
2021/07/31 11:24:04;;;;;;;1.80;1.10;;;;;;;;;;4936718;29;20066;-66
2021/07/31 11:26:31;;;;;;;2.42;0.90;;;;;;;;;;4937404;29;20089;-67
2021/07/31 11:28:58;;;;;;;4.63;1.38;;;;;;;;;;4937086;29;20079;-66
2021/07/31 11:31:24;;;;;;;5.03;1.55;;;;;;;;;;4935933;29;20078;-66
2021/07/31 11:34:01;;;;;;;3.60;1.00;;;;;;;;;;4937072;29;20138;-66
2021/07/31 11:36:28;;;;;;;2.88;1.38;;;;;;;;;;4935106;29;20078;-66
2021/07/31 11:38:55;;;;;;;3.20;1.30;;;;;;;;;;4936738;29;20153;-66
2021/07/31 11:41:22;;;;;;;3.58;1.60;;;;;;;;;;4937129;29;20163;-67
2021/07/31 11:43:59;;;;;;;3.45;1.00;;;;;;;;;;4936715;29;20075;-66
2021/07/31 11:46:34;;;;;;;3.97;1.55;;;;;;;;;;4936437;29;20048;-66
2021/07/31 11:49:05;;;;;;;2.50;1.20;;;;;;;;;;4942972;29;20520;-66
2021/07/31 11:51:41;;;;;;;2.40;1.10;;;;;;;;;;4936489;29;20052;-67
2021/07/31 11:54:08;;;;;;;2.03;1.05;;;;;;;;;;4936877;29;20083;-65
2021/07/31 11:56:36;;;;;;;1.85;1.02;;;;;;;;;;4936605;29;20051;-68
2021/07/31 11:59:02;;;;;;;2.22;1.30;;;;;;;;;;4919822;29;20084;-69
2021/07/31 12:01:29;;;;;;;4.63;1.75;;;;;;;;;;4935557;29;20044;-66
2021/07/31 12:03:56;;;;;;;4.82;1.85;;;;;;;;;;4915986;29;20060;-67
2021/07/31 12:06:40;;;;;;;2.15;0.98;;;;;;;;;;4936129;29;20099;-67
2021/07/31 12:09:23;;;;;;;4.30;1.40;;;;;;;;;;4936589;29;20082;-65
2021/07/31 12:11:51;;;;;;;;;;;;;;;;;;4934118;29;20055;-66
2021/07/31 12:14:27;;;;;;;3.90;1.58;;;;;;;;;;4931087;29;19969;-68
2021/07/31 12:17:15;;;;;;;4.57;1.48;;;;;;;;;;4928631;29;20463;-67
2021/07/31 12:19:46;;;;;;;3.90;1.38;;;;;;;;;;4932931;29;20071;-70
2021/07/31 12:22:22;;;;;;;1.88;1.20;;;;;;;;;;4934306;29;20392;-73
2021/07/31 12:25:14;;;;;;;3.42;1.10;;;;;;;;;;4936202;29;20055;-73
2021/07/31 12:28:00;;;;;;;3.63;1.20;;;;;;;;;;4935734;29;20590;-72
2021/07/31 12:30:45;;;;;;;4.63;1.40;;;;;;;;;;4935724;29;20039;-72
2021/07/31 12:33:11;;;;;;;3.95;2.10;;;;;;;;;;4934054;29;20396;-72
2021/07/31 12:35:39;;;;;;;1.95;1.10;;;;;;;;;;4926600;29;20229;-74
2021/07/31 12:38:08;;;;;;;4.03;1.30;;;;;;;;;;4930343;29;20462;-70
2021/07/31 12:40:35;;;;;;;2.78;1.13;;;;;;;;;;4920484;29;20083;-69
2021/07/31 12:43:04;;;;;;;2.15;1.15;;;;;;;;;;4932661;29;20075;-69
2021/07/31 12:45:31;;;;;;;1.92;1.00;;;;;;;;;;4933505;29;20085;-68
2021/07/31 12:47:57;;;;;;;3.35;1.40;;;;;;;;;;4934445;29;20083;-68
2021/07/31 12:50:24;;;;;;;3.03;1.23;;;;;;;;;;4934551;29;20059;-68
2021/07/31 12:52:50;;;;;;;1.25;1.00;;;;;;;;;;4934444;29;20721;-68
2021/07/31 12:55:17;;;;;;;3.03;1.10;;;;;;;;;;4933266;29;20079;-68
2021/07/31 12:57:45;;;;;;;3.28;1.38;;;;;;;;;;4935349;29;20048;-69
2021/07/31 13:00:13;;;;;;;4.40;1.42;;;;;;;;;;4935001;29;20052;-69
2021/07/31 13:03:00;;;;;;;3.15;1.20;;;;;;;;;;4932084;29;20058;-68
2021/07/31 13:05:27;;;;;;;3.03;1.00;;;;;;;;;;4928498;29;20134;-68
2021/07/31 13:07:58;;;;;;;3.03;0.93;;;;;;;;;;4934576;29;20146;-66
2021/07/31 13:10:24;;;;;;;4.18;1.00;;;;;;;;;;4932576;29;20490;-67
2021/07/31 13:12:51;;;;;;;3.80;1.40;;;;;;;;;;4934575;29;20442;-66
2021/07/31 13:15:20;;;;;;;2.70;1.10;;;;;;;;;;4935022;29;20083;-66
2021/07/31 13:17:47;;;;;;;2.83;1.38;;;;;;;;;;4934046;29;20043;-66
2021/07/31 13:20:16;;;;;;;2.42;1.48;;;;;;;;;;4935315;29;20079;-67
2021/07/31 13:22:46;;;;;;;4.15;1.20;;;;;;;;;;4934645;29;20091;-67
2021/07/31 13:25:13;;;;;;;2.97;1.23;;;;;;;;;;4931930;29;20082;-67
2021/07/31 13:27:40;;;;;;;3.47;1.20;;;;;;;;;;4935109;29;20154;-67
2021/07/31 13:30:07;;;;;;;2.95;1.00;;;;;;;;;;4934023;29;20486;-67
2021/07/31 13:32:34;;;;;;;2.45;1.05;;;;;;;;;;4934501;29;20047;-67
2021/07/31 13:35:01;;;;;;;2.97;1.30;;;;;;;;;;4933440;29;20087;-67
2021/07/31 13:37:35;;;;;;;3.25;1.42;;;;;;;;;;4934968;29;20047;-67
2021/07/31 13:40:15;;;;;;;3.08;1.23;;;;;;;;;;4934444;29;20065;-66
2021/07/31 13:42:43;;;;;;;3.45;1.30;;;;;;;;;;4931759;29;20098;-68
2021/07/31 13:45:10;;;;;;;5.90;1.63;;;;;;;;;;4934698;29;20051;-68
2021/07/31 13:47:38;;;;;;;2.53;1.02;;;;;;;;;;4933230;29;20055;-67
2021/07/31 13:50:06;;;;;;;3.00;1.17;;;;;;;;;;4931222;29;20064;-67
2021/07/31 13:52:33;;;;;;;4.45;1.33;;;;;;;;;;4933559;29;20102;-67
2021/07/31 13:54:59;;;;;;;2.75;1.45;;;;;;;;;;4934344;29;20672;-67
2021/07/31 13:57:26;;;;;;;2.35;0.90;;;;;;;;;;4932938;29;20146;-68
2021/07/31 13:59:53;;;;;;;8.40;1.58;;;;;;;;;;4933739;29;20079;-67
2021/07/31 14:02:20;;;;;;;4.18;1.25;;;;;;;;;;4933066;29;20044;-68
2021/07/31 14:04:48;;;;;;;1.52;0.82;;;;;;;;;;4934386;29;20123;-68
2021/07/31 14:07:17;;;;;;;2.10;0.80;;;;;;;;;;4917507;29;20079;-68
2021/07/31 14:09:46;;;;;;;2.47;1.13;;;;;;;;;;4931287;29;20157;-67
2021/07/31 14:12:13;;;;;;;2.60;1.40;;;;;;;;;;4931916;29;20079;-66
2021/07/31 14:14:39;;;;;;;5.18;1.67;;;;;;;;;;4932478;29;20052;-66
2021/07/31 14:17:06;;;;;;;2.22;1.00;;;;;;;;;;4932934;29;20364;-67
2021/07/31 14:19:33;;;;;;;6.43;1.30;;;;;;;;;;4933089;29;20543;-67
2021/07/31 14:21:59;;;;;;;4.35;1.00;;;;;;;;;;4932567;29;20138;-68
2021/07/31 14:24:26;;;;;;;2.75;1.33;;;;;;;;;;4933686;29;20476;-66
2021/07/31 14:26:52;;;;;;;3.55;1.23;;;;;;;;;;4932700;29;20099;-68
2021/07/31 14:29:19;;;;;;;2.03;1.02;;;;;;;;;;4933680;29;20135;-66
2021/07/31 14:31:47;;;;;;;2.20;1.08;;;;;;;;;;4933298;29;20052;-67
2021/07/31 14:34:14;;;;;;;3.03;1.10;;;;;;;;;;4933332;29;20057;-67
2021/07/31 14:36:41;;;;;;;3.20;1.30;;;;;;;;;;4933968;29;20050;-67
2021/07/31 14:39:07;;;;;;;2.42;1.30;;;;;;;;;;4933900;29;20048;-66
2021/07/31 14:41:34;;;;;;;4.55;1.58;;;;;;;;;;4933428;29;20109;-67
2021/07/31 14:44:01;;;;;;;3.17;1.33;;;;;;;;;;4932935;29;20095;-66
2021/07/31 14:46:27;;;;;;;2.58;1.02;;;;;;;;;;4933573;29;20051;-68
2021/07/31 14:48:55;;;;;;;4.47;1.10;;;;;;;;;;4933361;29;20097;-67
2021/07/31 14:51:21;;;;;;;3.35;1.27;;;;;;;;;;4933669;29;20052;-66